createdAt,value
2022-10-22T00:01:11.756Z,5.50
2022-10-22T00:03:38.397Z,5.60
2022-10-22T00:06:05.322Z,5.23
2022-10-22T00:08:32.077Z,4.93
2022-10-22T00:10:58.794Z,5.20
2022-10-22T00:13:25.831Z,5.80
2022-10-22T00:15:52.482Z,5.33
2022-10-22T00:18:19.117Z,6.33
2022-10-22T00:20:45.768Z,4.90
2022-10-22T00:23:12.398Z,4.90
2022-10-22T00:25:39.041Z,5.07
2022-10-22T00:28:05.823Z,5.07
2022-10-22T00:30:32.531Z,4.77
2022-10-22T00:32:59.202Z,4.77
2022-10-22T00:35:25.841Z,4.40
2022-10-22T00:37:52.482Z,4.40
2022-10-22T00:40:19.219Z,5.17
2022-10-22T00:42:46.102Z,4.73
2022-10-22T00:45:12.733Z,4.63
2022-10-22T00:47:44.439Z,4.50
2022-10-22T00:50:43.529Z,5.07
2022-10-22T00:53:14.571Z,6.10
2022-10-22T00:55:43.810Z,8.27
2022-10-22T00:58:12.591Z,5.07
2022-10-22T01:00:39.709Z,5.00
2022-10-22T01:03:08.001Z,5.17
2022-10-22T01:05:55.927Z,4.70
2022-10-22T01:08:36.256Z,4.30
2022-10-22T01:11:17.954Z,5.13
2022-10-22T01:13:53.694Z,5.13
2022-10-22T01:16:58.507Z,5.30
2022-10-22T01:19:40.502Z,5.10
2022-10-22T01:22:40.645Z,5.03
2022-10-22T01:25:16.398Z,4.73
2022-10-22T01:27:52.755Z,6.60
2022-10-22T01:30:20.353Z,5.20
2022-10-22T01:32:51.732Z,5.57
2022-10-22T01:35:24.252Z,4.73
2022-10-22T01:37:58.611Z,5.37
2022-10-22T01:40:27.467Z,4.63
2022-10-22T01:43:02.641Z,5.33
2022-10-22T01:45:32.994Z,5.03
2022-10-22T01:48:12.112Z,4.77
2022-10-22T01:50:48.002Z,4.73
2022-10-22T01:53:32.581Z,4.80
2022-10-22T01:56:06.534Z,5.77
2022-10-22T01:58:54.452Z,5.57
2022-10-22T02:01:33.513Z,5.23
2022-10-22T02:04:00.122Z,4.77
2022-10-22T02:06:29.502Z,5.60
2022-10-22T02:08:57.363Z,5.00
2022-10-22T02:11:24.023Z,5.20
2022-10-22T02:13:58.311Z,6.00
2022-10-22T02:16:30.487Z,4.70
2022-10-22T02:19:00.594Z,5.30
2022-10-22T02:21:28.322Z,5.60
2022-10-22T02:23:55.140Z,5.63
2022-10-22T02:26:27.789Z,5.33
2022-10-22T02:29:06.936Z,5.57
2022-10-22T02:31:37.530Z,4.80
2022-10-22T02:34:10.176Z,6.17
2022-10-22T02:36:39.023Z,5.40
2022-10-22T02:39:07.887Z,6.13
2022-10-22T02:41:35.137Z,6.17
2022-10-22T02:44:03.004Z,6.23
2022-10-22T02:46:29.650Z,6.90
2022-10-22T02:48:56.385Z,4.83
2022-10-22T02:51:23.117Z,5.70
2022-10-22T02:53:49.785Z,5.77
2022-10-22T02:56:16.451Z,5.83
2022-10-22T02:58:43.149Z,5.60
2022-10-22T03:01:12.391Z,6.90
2022-10-22T03:03:41.943Z,5.33
2022-10-22T03:06:08.921Z,5.50
2022-10-22T03:08:35.775Z,5.73
2022-10-22T03:11:02.486Z,5.47
2022-10-22T03:13:29.252Z,5.20
2022-10-22T03:15:55.936Z,5.40
2022-10-22T03:18:22.570Z,5.03
2022-10-22T03:20:49.243Z,5.60
2022-10-22T03:23:19.499Z,6.10
2022-10-22T03:25:48.261Z,6.43
2022-10-22T03:28:17.743Z,5.40
2022-10-22T03:30:44.418Z,6.30
2022-10-22T03:33:11.078Z,6.00
2022-10-22T03:35:43.850Z,5.70
2022-10-22T03:38:11.071Z,5.40
2022-10-22T03:40:38.227Z,5.83
2022-10-22T03:43:04.964Z,5.17
2022-10-22T03:45:31.706Z,5.70
2022-10-22T03:47:58.446Z,4.97
2022-10-22T03:50:25.174Z,5.67
2022-10-22T03:52:53.218Z,5.87
2022-10-22T03:55:19.860Z,5.13
2022-10-22T03:57:46.496Z,5.87
2022-10-22T04:00:13.354Z,5.63
2022-10-22T04:02:40.026Z,6.20
2022-10-22T04:05:07.366Z,5.27
2022-10-22T04:07:34.424Z,6.80
2022-10-22T04:10:01.040Z,6.50
2022-10-22T04:12:27.689Z,6.30
2022-10-22T04:14:54.352Z,7.43
2022-10-22T04:17:21.048Z,7.37
2022-10-22T04:19:47.689Z,6.57
2022-10-22T04:22:14.373Z,7.03
2022-10-22T04:24:41.119Z,8.13
2022-10-22T04:27:07.834Z,7.53
2022-10-22T04:29:34.474Z,7.37
2022-10-22T04:32:01.132Z,6.13
2022-10-22T04:34:28.983Z,6.10
2022-10-22T04:36:55.933Z,6.23
2022-10-22T04:39:22.679Z,7.90
2022-10-22T04:41:49.360Z,6.43
2022-10-22T04:44:17.214Z,5.90
2022-10-22T04:46:45.138Z,7.83
2022-10-22T04:49:11.907Z,7.03
2022-10-22T04:51:38.578Z,6.83
2022-10-22T04:54:05.499Z,6.70
2022-10-22T04:56:32.690Z,6.63
2022-10-22T04:59:01.664Z,7.77
2022-10-22T05:01:41.593Z,6.40
2022-10-22T05:04:12.844Z,6.97
2022-10-22T05:06:39.598Z,7.10
2022-10-22T05:09:13.516Z,8.27
2022-10-22T05:11:41.865Z,6.73
2022-10-22T05:14:09.446Z,7.50
2022-10-22T05:16:37.948Z,7.03
2022-10-22T05:19:05.371Z,6.87
2022-10-22T05:21:32.187Z,7.30
2022-10-22T05:24:02.281Z,6.73
2022-10-22T05:26:29.602Z,6.97
2022-10-22T05:28:56.511Z,7.30
2022-10-22T05:31:23.510Z,6.20
2022-10-22T05:33:50.208Z,7.20
2022-10-22T05:36:20.275Z,7.27
2022-10-22T05:38:46.969Z,6.97
2022-10-22T05:41:19.034Z,6.37
2022-10-22T05:43:46.040Z,6.60
2022-10-22T05:46:18.684Z,5.97
2022-10-22T05:48:55.959Z,7.20
2022-10-22T05:51:24.198Z,7.70
2022-10-22T05:53:57.082Z,8.30
2022-10-22T05:56:25.170Z,6.77
2022-10-22T05:58:52.098Z,7.40
2022-10-22T06:01:27.489Z,7.53
2022-10-22T06:03:56.284Z,6.30
2022-10-22T06:06:50.457Z,7.40
2022-10-22T06:09:22.199Z,7.30
2022-10-22T06:11:48.978Z,7.63
2022-10-22T06:14:16.378Z,8.07
2022-10-22T06:16:43.316Z,7.10
2022-10-22T06:19:12.706Z,6.63
2022-10-22T06:21:39.589Z,6.63
2022-10-22T06:24:06.617Z,7.27
2022-10-22T06:26:33.408Z,7.50
2022-10-22T06:29:00.768Z,10.67
2022-10-22T06:31:28.480Z,8.20
2022-10-22T06:33:56.780Z,7.60
2022-10-22T06:36:24.404Z,7.70
2022-10-22T06:38:54.928Z,7.77
2022-10-22T06:41:25.585Z,8.50
2022-10-22T06:43:57.204Z,8.00
2022-10-22T06:46:24.747Z,8.67
2022-10-22T06:49:03.008Z,8.17
2022-10-22T06:51:29.988Z,8.70
2022-10-22T06:53:57.967Z,7.17
2022-10-22T06:56:26.816Z,7.93
2022-10-22T06:58:55.722Z,7.53
2022-10-22T07:01:25.543Z,7.23
2022-10-22T07:03:52.662Z,8.17
2022-10-22T07:06:20.617Z,8.07
2022-10-22T07:08:47.478Z,7.30
2022-10-22T07:11:17.765Z,7.87
2022-10-22T07:13:45.208Z,8.07
2022-10-22T07:16:12.487Z,8.93
2022-10-22T07:18:40.332Z,8.00
2022-10-22T07:21:08.251Z,9.10
2022-10-22T07:23:35.598Z,7.90
2022-10-22T07:26:02.928Z,7.90
2022-10-22T07:28:30.699Z,9.47
2022-10-22T07:30:57.370Z,7.80
2022-10-22T07:33:24.058Z,8.07
2022-10-22T07:35:50.759Z,8.20
2022-10-22T07:38:17.430Z,8.27
2022-10-22T07:40:44.102Z,8.77
2022-10-22T07:43:10.727Z,7.87
2022-10-22T07:45:37.454Z,8.47
2022-10-22T07:48:04.805Z,8.53
2022-10-22T07:50:31.574Z,7.93
2022-10-22T07:52:58.552Z,7.30
2022-10-22T07:55:25.324Z,6.53
2022-10-22T07:57:52.021Z,7.13
2022-10-22T08:00:21.685Z,6.50
2022-10-22T08:02:51.174Z,6.60
2022-10-22T08:05:17.997Z,4.70
2022-10-22T08:07:44.801Z,4.90
2022-10-22T08:10:12.217Z,4.60
2022-10-22T08:12:39.674Z,4.60
2022-10-22T08:15:07.873Z,4.03
2022-10-22T08:17:34.567Z,4.23
2022-10-22T08:20:01.226Z,3.40
2022-10-22T08:22:27.954Z,3.97
2022-10-22T08:24:54.598Z,3.27
2022-10-22T08:27:21.832Z,3.87
2022-10-22T08:29:48.587Z,2.77
2022-10-22T08:32:15.483Z,3.10
2022-10-22T08:34:42.224Z,3.47
2022-10-22T08:37:10.472Z,3.20
2022-10-22T08:39:37.097Z,3.50
2022-10-22T08:42:24.794Z,3.30
2022-10-22T08:44:59.232Z,2.93
2022-10-22T08:47:44.614Z,3.23
2022-10-22T08:50:15.721Z,3.50
2022-10-22T08:52:48.545Z,3.43
2022-10-22T08:55:16.078Z,3.23
2022-10-22T08:58:04.801Z,3.03
2022-10-22T09:00:47.429Z,2.60
2022-10-22T09:03:49.302Z,3.00
2022-10-22T09:06:20.092Z,2.73
2022-10-22T09:08:47.800Z,2.90
2022-10-22T09:11:17.859Z,2.60
2022-10-22T09:13:46.177Z,2.70
2022-10-22T09:16:24.742Z,2.83
2022-10-22T09:19:14.487Z,2.47
2022-10-22T09:21:59.256Z,2.70
2022-10-22T09:24:34.678Z,2.47
2022-10-22T09:27:02.757Z,2.33
2022-10-22T09:29:33.398Z,3.70
2022-10-22T09:32:00.528Z,2.67
2022-10-22T09:34:29.163Z,3.00
2022-10-22T09:37:06.560Z,3.10
2022-10-22T09:39:46.140Z,2.50
2022-10-22T09:42:17.359Z,2.60
2022-10-22T09:44:47.710Z,2.50
2022-10-22T09:48:01.036Z,2.83
2022-10-22T09:50:45.889Z,3.30
2022-10-22T09:53:15.542Z,3.10
2022-10-22T09:55:43.084Z,3.67
2022-10-22T09:58:14.215Z,3.90
2022-10-22T10:00:43.870Z,3.37
2022-10-22T10:03:21.679Z,2.80
2022-10-22T10:05:52.823Z,2.50
2022-10-22T10:08:19.747Z,2.97
2022-10-22T10:11:08.188Z,3.03
2022-10-22T10:13:43.503Z,2.23
2022-10-22T10:16:24.348Z,2.60
2022-10-22T10:19:02.813Z,2.70
2022-10-22T10:21:44.286Z,3.63
2022-10-22T10:24:51.448Z,2.27
2022-10-22T10:27:30.938Z,3.60
2022-10-22T10:30:23.878Z,3.23
2022-10-22T10:33:40.296Z,2.90
2022-10-22T10:36:40.251Z,2.80
2022-10-22T10:39:27.792Z,3.80
2022-10-22T10:42:03.406Z,2.67
2022-10-22T10:44:51.367Z,3.17
2022-10-22T10:47:33.268Z,2.60
2022-10-22T10:50:30.778Z,3.77
2022-10-22T10:53:34.463Z,2.10
2022-10-22T10:56:13.685Z,2.33
2022-10-22T10:59:09.794Z,2.70
2022-10-22T11:01:45.366Z,2.10
2022-10-22T11:04:32.494Z,2.00
2022-10-22T11:07:11.136Z,1.70
2022-10-22T11:10:06.878Z,2.27
2022-10-22T11:12:42.081Z,3.43
2022-10-22T11:15:27.364Z,2.27
2022-10-22T11:18:16.690Z,1.73
2022-10-22T11:21:13.911Z,2.13
2022-10-22T11:23:49.662Z,2.10
2022-10-22T11:26:48.360Z,1.87
2022-10-22T11:29:23.021Z,2.47
2022-10-22T11:31:52.863Z,2.00
2022-10-22T11:34:39.652Z,2.00
2022-10-22T11:37:07.039Z,1.60
2022-10-22T11:39:59.717Z,2.30
2022-10-22T11:42:40.070Z,1.53
2022-10-22T11:45:13.794Z,1.40
2022-10-22T11:48:11.522Z,1.70
2022-10-22T11:50:50.786Z,1.80
2022-10-22T11:53:18.963Z,1.90
2022-10-22T11:55:55.320Z,2.00
2022-10-22T11:58:37.640Z,1.70
2022-10-22T12:01:10.096Z,4.00
2022-10-22T12:03:48.562Z,1.80
2022-10-22T12:06:15.795Z,2.33
2022-10-22T12:08:54.090Z,2.10
2022-10-22T12:11:28.522Z,2.33
2022-10-22T12:14:26.354Z,1.60
2022-10-22T12:16:58.312Z,4.07
2022-10-22T12:19:30.607Z,1.80
2022-10-22T12:22:06.115Z,1.77
2022-10-22T12:24:37.801Z,1.50
2022-10-22T12:27:15.996Z,1.50
2022-10-22T12:29:43.924Z,1.90
2022-10-22T12:32:13.364Z,1.80
2022-10-22T12:34:47.704Z,1.67
2022-10-22T12:37:16.039Z,1.60
2022-10-22T12:39:44.210Z,1.97
2022-10-22T12:42:16.241Z,1.77
2022-10-22T12:44:45.833Z,1.90
2022-10-22T12:47:18.020Z,2.60
2022-10-22T12:49:48.530Z,1.70
2022-10-22T12:52:22.107Z,1.73
2022-10-22T12:54:55.014Z,2.47
2022-10-22T12:57:22.129Z,1.67
2022-10-22T12:59:51.223Z,2.27
2022-10-22T13:02:26.378Z,1.97
2022-10-22T13:05:17.217Z,1.90
2022-10-22T13:08:08.563Z,1.70
2022-10-22T13:10:41.355Z,2.30
2022-10-22T13:13:28.158Z,1.93
2022-10-22T13:15:56.806Z,2.07
2022-10-22T13:18:25.159Z,1.80
2022-10-22T13:21:03.125Z,2.63
2022-10-22T13:23:32.823Z,2.63
2022-10-22T13:26:17.110Z,2.10
2022-10-22T13:28:54.388Z,2.70
2022-10-22T13:31:33.412Z,1.73
2022-10-22T13:34:09.692Z,2.10
2022-10-22T13:36:38.400Z,1.57
2022-10-22T13:39:08.812Z,1.93
2022-10-22T13:44:06.778Z,1.70
2022-10-22T13:46:36.400Z,2.00
2022-10-22T13:49:04.649Z,2.00
2022-10-22T13:51:35.517Z,2.37
2022-10-22T13:54:03.869Z,1.60
2022-10-22T13:56:30.635Z,1.40
2022-10-22T13:58:57.284Z,1.93
2022-10-22T14:01:26.882Z,2.73
2022-10-22T14:03:57.925Z,1.70
2022-10-22T14:06:26.185Z,1.67
2022-10-22T14:08:58.979Z,1.60
2022-10-22T14:11:31.207Z,1.37
2022-10-22T14:13:57.932Z,1.50
2022-10-22T14:16:28.394Z,1.40
2022-10-22T14:18:55.977Z,1.50
2022-10-22T14:21:23.049Z,1.50
2022-10-22T14:23:51.599Z,1.73
2022-10-22T14:26:31.389Z,1.70
2022-10-22T14:29:13.901Z,2.00
2022-10-22T14:31:43.070Z,1.63
2022-10-22T14:34:12.441Z,1.70
2022-10-22T14:36:39.170Z,1.70
2022-10-22T14:39:05.820Z,2.50
2022-10-22T14:41:32.494Z,2.00
2022-10-22T14:43:59.849Z,1.90
2022-10-22T14:46:26.770Z,1.90
2022-10-22T14:48:53.423Z,2.10
2022-10-22T14:51:21.223Z,2.00
2022-10-22T14:53:48.123Z,2.50
2022-10-22T14:56:18.079Z,2.10
2022-10-22T14:58:45.586Z,2.63
2022-10-22T15:01:12.641Z,2.33
2022-10-22T15:03:39.369Z,2.10
2022-10-22T15:06:06.902Z,2.57
2022-10-22T15:08:33.710Z,2.10
2022-10-22T15:11:02.005Z,1.80
2022-10-22T15:13:29.584Z,1.83
2022-10-22T15:15:57.372Z,1.90
2022-10-22T15:18:24.585Z,1.57
2022-10-22T15:21:04.621Z,2.07
2022-10-22T15:23:31.598Z,2.07
2022-10-22T15:25:58.582Z,2.00
2022-10-22T15:28:25.591Z,2.23
2022-10-22T15:30:57.688Z,3.40
2022-10-22T15:33:24.853Z,7.50
2022-10-22T15:35:51.652Z,3.13
2022-10-22T15:38:18.667Z,7.57
2022-10-22T15:40:45.794Z,3.47
2022-10-22T15:43:13.033Z,6.30
2022-10-22T15:45:40.026Z,2.37
2022-10-22T15:48:06.782Z,4.73
2022-10-22T15:50:38.483Z,2.30
2022-10-22T15:53:05.566Z,2.30
2022-10-22T15:55:32.281Z,2.80
2022-10-22T15:58:01.846Z,2.97
2022-10-22T16:00:30.292Z,3.00
2022-10-22T16:02:56.955Z,3.00
2022-10-22T16:05:23.703Z,3.30
2022-10-22T16:07:51.405Z,3.10
2022-10-22T16:10:18.146Z,3.63
2022-10-22T16:12:44.920Z,3.60
2022-10-22T16:15:11.776Z,3.27
2022-10-22T16:17:38.477Z,3.07
2022-10-22T16:20:05.637Z,3.70
2022-10-22T16:22:33.362Z,3.50
2022-10-22T16:24:59.993Z,3.97
2022-10-22T16:27:26.673Z,4.10
2022-10-22T16:29:53.289Z,3.43
2022-10-22T16:32:19.944Z,4.57
2022-10-22T16:34:46.653Z,3.83
2022-10-22T16:37:13.273Z,4.20
2022-10-22T16:39:39.887Z,3.97
2022-10-22T16:42:06.786Z,4.40
2022-10-22T16:44:33.435Z,4.00
2022-10-22T16:47:00.950Z,3.90
2022-10-22T16:49:27.771Z,4.40
2022-10-22T16:51:54.399Z,4.10
2022-10-22T16:54:21.881Z,4.37
2022-10-22T16:56:48.592Z,4.10
2022-10-22T16:59:15.683Z,4.30
2022-10-22T17:01:42.390Z,4.00
2022-10-22T17:04:09.625Z,4.20
2022-10-22T17:06:36.374Z,4.83
2022-10-22T17:09:03.492Z,4.67
2022-10-22T17:11:34.781Z,4.30
2022-10-22T17:14:02.836Z,4.20
2022-10-22T17:16:29.914Z,3.73
2022-10-22T17:18:57.917Z,4.30
2022-10-22T17:21:25.028Z,4.57
2022-10-22T17:23:56.711Z,4.27
2022-10-22T17:26:26.328Z,4.03
2022-10-22T17:28:53.570Z,3.40
2022-10-22T17:31:23.311Z,3.80
2022-10-22T17:33:51.916Z,4.00
2022-10-22T17:36:19.858Z,3.90
2022-10-22T17:38:50.409Z,3.57
2022-10-22T17:41:20.813Z,3.90
2022-10-22T17:43:48.398Z,3.30
2022-10-22T17:46:20.784Z,4.13
2022-10-22T17:49:09.524Z,4.53
2022-10-22T17:51:36.583Z,3.60
2022-10-22T17:54:07.259Z,4.23
2022-10-22T17:56:37.269Z,4.53
2022-10-22T17:59:08.895Z,4.50
2022-10-22T18:01:37.594Z,3.90
2022-10-22T18:04:07.771Z,4.30
2022-10-22T18:06:34.995Z,4.00
2022-10-22T18:09:05.960Z,4.03
2022-10-22T18:11:34.293Z,4.13
2022-10-22T18:14:00.994Z,3.80
2022-10-22T18:16:27.796Z,3.73
2022-10-22T18:18:56.303Z,3.50
2022-10-22T18:21:25.673Z,3.50
2022-10-22T18:23:53.266Z,3.43
2022-10-22T18:26:22.943Z,3.60
2022-10-22T18:28:53.679Z,3.70
2022-10-22T18:31:22.995Z,3.80
2022-10-22T18:33:50.574Z,3.33
2022-10-22T18:36:19.848Z,3.53
2022-10-22T18:38:51.085Z,4.50
2022-10-22T18:41:18.349Z,4.33
2022-10-22T18:43:49.302Z,4.60
2022-10-22T18:46:15.949Z,4.23
2022-10-22T18:48:43.073Z,4.57
2022-10-22T18:51:10.221Z,5.20
2022-10-22T18:53:37.588Z,5.80
2022-10-22T18:56:09.201Z,6.60
2022-10-22T18:58:40.171Z,5.67
2022-10-22T19:01:15.797Z,4.77
2022-10-22T19:03:42.895Z,5.20
2022-10-22T19:06:09.566Z,4.33
2022-10-22T19:08:37.149Z,4.87
2022-10-22T19:11:13.371Z,5.30
2022-10-22T19:13:40.798Z,4.90
2022-10-22T19:16:09.358Z,4.30
2022-10-22T19:18:38.405Z,4.40
2022-10-22T19:21:05.537Z,4.73
2022-10-22T19:23:32.330Z,4.00
2022-10-22T19:26:14.844Z,3.80
2022-10-22T19:28:42.024Z,3.90
2022-10-22T19:31:10.777Z,3.87
2022-10-22T19:33:37.895Z,3.70
2022-10-22T19:36:12.664Z,4.10
2022-10-22T19:38:41.498Z,3.97
2022-10-22T19:41:09.605Z,3.87
2022-10-22T19:43:36.689Z,4.27
2022-10-22T19:46:04.584Z,4.93
2022-10-22T19:48:31.934Z,3.87
2022-10-22T19:51:02.794Z,4.17
2022-10-22T19:53:30.315Z,4.13
2022-10-22T19:56:00.606Z,3.60
2022-10-22T19:58:28.160Z,4.00
2022-10-22T20:00:55.303Z,3.53
2022-10-22T20:03:23.108Z,4.23
2022-10-22T20:05:52.808Z,3.93
2022-10-22T20:08:19.899Z,4.40
2022-10-22T20:10:49.168Z,4.30
2022-10-22T20:13:16.270Z,4.00
2022-10-22T20:15:43.361Z,4.30
2022-10-22T20:18:09.997Z,4.60
2022-10-22T20:20:39.955Z,3.80
2022-10-22T20:23:08.558Z,4.47
2022-10-22T20:25:40.401Z,4.93
2022-10-22T20:28:07.026Z,4.53
2022-10-22T20:30:34.131Z,4.20
2022-10-22T20:33:00.785Z,4.20
2022-10-22T20:35:27.856Z,4.07
2022-10-22T20:37:54.493Z,4.03
2022-10-22T20:40:21.207Z,3.80
2022-10-22T20:42:49.297Z,3.93
2022-10-22T20:45:16.350Z,3.77
2022-10-22T20:47:51.329Z,4.13
2022-10-22T20:50:31.241Z,3.73
2022-10-22T20:52:58.286Z,3.67
2022-10-22T20:55:25.050Z,4.23
2022-10-22T20:57:51.784Z,3.73
2022-10-22T21:00:19.000Z,3.87
2022-10-22T21:02:45.732Z,4.03
2022-10-22T21:05:12.359Z,3.97
2022-10-22T21:07:39.659Z,3.80
2022-10-22T21:10:07.013Z,4.10
2022-10-22T21:12:33.644Z,4.50
2022-10-22T21:15:00.289Z,4.43
2022-10-22T21:17:26.960Z,3.80
2022-10-22T21:19:54.022Z,4.30
2022-10-22T21:22:20.677Z,4.40
2022-10-22T21:24:47.316Z,4.87
2022-10-22T21:27:14.048Z,4.87
2022-10-22T21:29:40.674Z,4.27
2022-10-22T21:32:07.798Z,4.23
2022-10-22T21:34:38.257Z,4.40
2022-10-22T21:37:05.810Z,4.47
2022-10-22T21:39:32.975Z,4.83
2022-10-22T21:41:59.702Z,4.90
2022-10-22T21:44:26.374Z,5.00
2022-10-22T21:46:53.112Z,4.40
2022-10-22T21:49:19.765Z,4.40
2022-10-22T21:51:46.388Z,5.77
2022-10-22T21:54:13.727Z,4.77
2022-10-22T21:56:40.939Z,5.67
2022-10-22T21:59:08.124Z,5.60
2022-10-22T22:01:35.401Z,5.03
2022-10-22T22:04:02.495Z,5.20
2022-10-22T22:06:33.132Z,5.67
2022-10-22T22:09:01.150Z,5.27
2022-10-22T22:11:28.700Z,5.13
2022-10-22T22:13:56.895Z,5.00
2022-10-22T22:16:32.533Z,4.90
2022-10-22T22:19:01.786Z,5.70
2022-10-22T22:21:29.488Z,5.70
2022-10-22T22:23:57.803Z,5.03
2022-10-22T22:26:29.641Z,5.13
2022-10-22T22:28:58.259Z,5.90
2022-10-22T22:31:30.188Z,5.30
2022-10-22T22:34:08.664Z,5.70
2022-10-22T22:36:37.840Z,5.60
2022-10-22T22:39:06.597Z,5.47
2022-10-22T22:41:33.577Z,5.63
2022-10-22T22:44:00.386Z,5.80
2022-10-22T22:46:27.139Z,6.00
2022-10-22T22:48:53.883Z,5.83
2022-10-22T22:51:20.802Z,6.10
2022-10-22T22:53:47.651Z,6.20
2022-10-22T22:56:23.773Z,5.63
2022-10-22T22:58:50.477Z,6.00
2022-10-22T23:01:29.373Z,7.17
2022-10-22T23:04:00.936Z,6.23
2022-10-22T23:06:30.006Z,6.80
2022-10-22T23:08:57.441Z,6.33
2022-10-22T23:11:25.922Z,6.07
2022-10-22T23:13:55.270Z,5.37
2022-10-22T23:16:24.333Z,6.33
2022-10-22T23:18:53.404Z,5.67
2022-10-22T23:21:23.304Z,6.00
2022-10-22T23:23:52.851Z,5.53
2022-10-22T23:26:26.046Z,6.07
2022-10-22T23:28:53.290Z,5.37
2022-10-22T23:31:21.757Z,5.50
2022-10-22T23:33:48.936Z,4.83
2022-10-22T23:36:15.912Z,5.50
2022-10-22T23:38:43.569Z,5.20
2022-10-22T23:41:10.372Z,5.00
2022-10-22T23:43:38.319Z,5.40
2022-10-22T23:46:07.172Z,5.33
2022-10-22T23:48:34.269Z,5.43
2022-10-22T23:51:10.147Z,5.60
2022-10-22T23:53:37.188Z,4.87
2022-10-22T23:56:06.078Z,4.90
2022-10-22T23:58:33.917Z,4.80
